Flag for Canada

Past Weather in 49°17'19.7"N, 123°06'37.2"W, Canada — Yesterday and Last 2 Weeks

Currently: 55 °F. Clear. (Weather station: Vancouver International Airport, Canada). See more current weather

Past Weather in 49°17'19.7"N, 123°06'37.2"W — Graph

°F

49°17'19.7"N, 123°06'37.2"W Temperature Yesterday

Maximum temperature yesterday: 64 °F (at 3:00 pm)
Minimum temperature yesterday: 50 °F (at 3:00 am)
Average temperature yesterday: 58 °F

High & Low Weather Summary for the Past Weeks

 TemperatureHumidityPressure
High68 °F (May 6, 1:00 pm)100% (Apr 30, 1:29 am)30.36 "Hg (Apr 30, 1:29 am)
Low43 °F (May 6, 9:00 am)40% (May 6, 2:00 pm)29.78 "Hg (May 6, 6:00 am)
Average54 °F77%30.16 "Hg
* Reported Apr 30 1:00 am — May 15 1:00 am, 49°17'19.7"N, 123°06'37.2"W. Weather by CustomWeather, © 2021

Note: Actual official high and low records may vary slightly from our data, if they occured in-between our weather recording intervals... More about our weather records

49°17'19.7"N, 123°06'37.2"W Weather History for the Previous 24 Hours

Scroll right to see more
 ConditionsComfort  
Time TempWeatherWind HumidityBarometerVisibility
1:00 am
Sat, May 15
57 °FClear.13 mph82%30.09 "Hg15 mi
12:00 am57 °FClear.9 mph77%30.07 "Hg15 mi
11:00 pm
Fri, May 14
59 °FPassing clouds.17 mph72%30.06 "Hg15 mi
10:00 pm57 °FPassing clouds.6 mph82%30.06 "Hg15 mi
9:00 pm59 °FPassing clouds.3 mph82%30.05 "Hg20 mi
8:00 pm59 °FScattered clouds.7 mph82%30.04 "Hg20 mi
7:00 pm63 °FPartly sunny.8 mph68%30.05 "Hg20 mi
6:00 pm63 °FPartly sunny.10 mph68%30.07 "Hg30 mi
5:00 pm64 °FBroken clouds.8 mph68%30.08 "Hg30 mi
4:00 pm64 °FScattered clouds.10 mph73%30.09 "Hg30 mi
3:00 pm64 °FPassing clouds.10 mph73%30.11 "Hg30 mi
2:00 pm63 °FPassing clouds.9 mph77%30.13 "Hg30 mi
1:00 pm63 °FPassing clouds.9 mph73%30.13 "Hg30 mi
12:00 pm63 °FPassing clouds.10 mph73%30.15 "Hg30 mi
11:00 am61 °FPassing clouds.13 mph77%30.16 "Hg30 mi
10:00 am59 °FPassing clouds.14 mph82%30.16 "Hg30 mi
9:00 am59 °FPassing clouds.9 mph82%30.16 "Hg30 mi
8:00 am59 °FPassing clouds.6 mph77%30.16 "Hg30 mi
7:00 am54 °FPassing clouds.No wind88%30.15 "Hg30 mi
6:00 am50 °FPassing clouds.3 mph88%30.14 "Hg20 mi
5:00 am50 °FPassing clouds.No wind88%30.14 "Hg20 mi
4:00 am50 °FPassing clouds.No wind88%30.14 "Hg15 mi
3:00 am50 °FPassing clouds.5 mph100%30.13 "Hg15 mi
2:00 am55 °FPassing clouds.3 mph88%30.12 "Hg15 mi
Weather by CustomWeather, © 2021

See weather overview